Aldbourne, United Kingdom
Current Conditions -  °F | °C
As of 1:58 PM on Sunday 23 Nov 2014 (Local Time) from EGVA Reporting Station
Overcast Overcast  
Wind Chill: 47°   Ceiling: 7000
Heat Index: 47°   Visibility: 6mi
Dew Point: 44°   Wind: 3mph
Humidity: 89%   Direction: 330°NNW
Pressure: 30.03"   Gusts: NA
Location:  51.48°N, 1.62°W
Report Text: EGVA 231358Z AUTO 33003KT 9999 OVC070 08/07 A3003 RMK AO2 RAB1340E1349 SLP174 P0000 T00830066 $
Loading
Personal Weather Stations






























Interactive Weather Map New forecast layout! Learn more

10-Day Weather Forecast

Advertisements
Track Severe Weather on mobile